sensor_id;sensor_type;location;lat;lon;timestamp;P1;durP1;ratioP1;P2;durP2;ratioP2
47299;SDS011;33036;51.320;17.234;2022-08-02T00:01:25;4.85;;;3.88;;
47299;SDS011;33036;51.320;17.234;2022-08-02T00:05:26;4.53;;;3.65;;
47299;SDS011;33036;51.320;17.234;2022-08-02T00:09:27;7.00;;;4.13;;
47299;SDS011;33036;51.320;17.234;2022-08-02T00:13:28;10.13;;;4.50;;
47299;SDS011;33036;51.320;17.234;2022-08-02T00:17:29;5.15;;;4.03;;
47299;SDS011;33036;51.320;17.234;2022-08-02T00:21:30;17.10;;;3.90;;
47299;SDS011;33036;51.320;17.234;2022-08-02T00:25:31;6.95;;;3.83;;
47299;SDS011;33036;51.320;17.234;2022-08-02T00:29:32;7.32;;;4.30;;
47299;SDS011;33036;51.320;17.234;2022-08-02T00:33:34;6.10;;;4.47;;
47299;SDS011;33036;51.320;17.234;2022-08-02T00:37:38;7.38;;;4.50;;
47299;SDS011;33036;51.320;17.234;2022-08-02T00:41:44;8.30;;;4.05;;
47299;SDS011;33036;51.320;17.234;2022-08-02T00:45:50;8.10;;;3.85;;
47299;SDS011;33036;51.320;17.234;2022-08-02T00:49:53;8.55;;;4.22;;
47299;SDS011;33036;51.320;17.234;2022-08-02T00:53:54;5.75;;;3.63;;
47299;SDS011;33036;51.320;17.234;2022-08-02T00:57:55;7.25;;;4.03;;
47299;SDS011;33036;51.320;17.234;2022-08-02T01:01:56;6.28;;;3.80;;
47299;SDS011;33036;51.320;17.234;2022-08-02T01:05:57;4.20;;;3.75;;
47299;SDS011;33036;51.320;17.234;2022-08-02T01:09:57;4.47;;;3.50;;
47299;SDS011;33036;51.320;17.234;2022-08-02T01:14:10;6.05;;;3.55;;
47299;SDS011;33036;51.320;17.234;2022-08-02T01:18:15;14.93;;;3.70;;
47299;SDS011;33036;51.320;17.234;2022-08-02T01:22:28;9.00;;;4.00;;
47299;SDS011;33036;51.320;17.234;2022-08-02T01:31:43;6.40;;;3.53;;
47299;SDS011;33036;51.320;17.234;2022-08-02T01:35:49;6.20;;;3.75;;
47299;SDS011;33036;51.320;17.234;2022-08-02T01:39:54;6.43;;;3.72;;
47299;SDS011;33036;51.320;17.234;2022-08-02T01:44:07;4.22;;;3.40;;
47299;SDS011;33036;51.320;17.234;2022-08-02T01:48:09;8.40;;;4.05;;
47299;SDS011;33036;51.320;17.234;2022-08-02T01:52:12;8.18;;;4.07;;
47299;SDS011;33036;51.320;17.234;2022-08-02T01:56:22;4.55;;;3.90;;
47299;SDS011;33036;51.320;17.234;2022-08-02T02:00:24;5.60;;;3.83;;
47299;SDS011;33036;51.320;17.234;2022-08-02T02:04:28;7.30;;;4.63;;
47299;SDS011;33036;51.320;17.234;2022-08-02T02:08:31;6.90;;;4.18;;
47299;SDS011;33036;51.320;17.234;2022-08-02T02:12:36;5.45;;;4.30;;
47299;SDS011;33036;51.320;17.234;2022-08-02T02:16:39;6.35;;;4.97;;
47299;SDS011;33036;51.320;17.234;2022-08-02T02:20:42;7.93;;;4.68;;
47299;SDS011;33036;51.320;17.234;2022-08-02T02:24:43;5.57;;;4.15;;
47299;SDS011;33036;51.320;17.234;2022-08-02T02:28:45;8.35;;;4.45;;
47299;SDS011;33036;51.320;17.234;2022-08-02T02:32:46;8.63;;;4.72;;
47299;SDS011;33036;51.320;17.234;2022-08-02T02:36:49;6.38;;;5.15;;
47299;SDS011;33036;51.320;17.234;2022-08-02T02:40:51;7.43;;;5.15;;
47299;SDS011;33036;51.320;17.234;2022-08-02T02:44:52;10.23;;;4.50;;
47299;SDS011;33036;51.320;17.234;2022-08-02T02:48:54;6.50;;;4.93;;
47299;SDS011;33036;51.320;17.234;2022-08-02T02:52:58;9.18;;;5.55;;
47299;SDS011;33036;51.320;17.234;2022-08-02T02:57:00;8.10;;;5.57;;
47299;SDS011;33036;51.320;17.234;2022-08-02T03:01:02;9.00;;;5.30;;
47299;SDS011;33036;51.320;17.234;2022-08-02T03:05:21;7.93;;;4.82;;
47299;SDS011;33036;51.320;17.234;2022-08-02T03:09:23;7.97;;;4.65;;
47299;SDS011;33036;51.320;17.234;2022-08-02T03:13:23;7.30;;;4.88;;
47299;SDS011;33036;51.320;17.234;2022-08-02T03:17:24;7.28;;;4.82;;
47299;SDS011;33036;51.320;17.234;2022-08-02T03:21:25;10.27;;;5.53;;
47299;SDS011;33036;51.320;17.234;2022-08-02T03:25:26;11.68;;;5.53;;
47299;SDS011;33036;51.320;17.234;2022-08-02T03:29:27;9.73;;;5.00;;
47299;SDS011;33036;51.320;17.234;2022-08-02T03:33:28;7.78;;;5.50;;
47299;SDS011;33036;51.320;17.234;2022-08-02T03:37:29;12.57;;;6.70;;
47299;SDS011;33036;51.320;17.234;2022-08-02T03:41:32;8.90;;;6.15;;
47299;SDS011;33036;51.320;17.234;2022-08-02T03:45:33;5.90;;;5.35;;
47299;SDS011;33036;51.320;17.234;2022-08-02T03:49:34;11.75;;;6.25;;
47299;SDS011;33036;51.320;17.234;2022-08-02T03:53:36;7.03;;;5.60;;
47299;SDS011;33036;51.320;17.234;2022-08-02T03:57:38;8.20;;;6.60;;
47299;SDS011;33036;51.320;17.234;2022-08-02T04:01:40;8.18;;;6.22;;
47299;SDS011;33036;51.320;17.234;2022-08-02T04:05:42;10.98;;;6.93;;
47299;SDS011;33036;51.320;17.234;2022-08-02T04:09:42;9.98;;;7.10;;
47299;SDS011;33036;51.320;17.234;2022-08-02T04:13:44;8.98;;;6.53;;
47299;SDS011;33036;51.320;17.234;2022-08-02T04:17:47;11.18;;;7.43;;
47299;SDS011;33036;51.320;17.234;2022-08-02T04:21:50;13.00;;;7.82;;
47299;SDS011;33036;51.320;17.234;2022-08-02T04:25:53;9.93;;;7.63;;
47299;SDS011;33036;51.320;17.234;2022-08-02T04:29:54;10.32;;;7.78;;
47299;SDS011;33036;51.320;17.234;2022-08-02T04:33:57;11.82;;;8.50;;
47299;SDS011;33036;51.320;17.234;2022-08-02T04:37:58;14.90;;;9.70;;
47299;SDS011;33036;51.320;17.234;2022-08-02T04:41:59;10.80;;;9.00;;
47299;SDS011;33036;51.320;17.234;2022-08-02T04:46:00;14.65;;;9.25;;
47299;SDS011;33036;51.320;17.234;2022-08-02T04:50:02;11.25;;;8.75;;
47299;SDS011;33036;51.320;17.234;2022-08-02T04:54:04;13.77;;;9.50;;
47299;SDS011;33036;51.320;17.234;2022-08-02T04:58:06;13.35;;;9.95;;
47299;SDS011;33036;51.320;17.234;2022-08-02T05:02:10;13.23;;;8.75;;
47299;SDS011;33036;51.320;17.234;2022-08-02T05:06:10;13.27;;;9.60;;
47299;SDS011;33036;51.320;17.234;2022-08-02T05:10:11;13.85;;;9.90;;
47299;SDS011;33036;51.320;17.234;2022-08-02T05:14:13;14.10;;;9.40;;
47299;SDS011;33036;51.320;17.234;2022-08-02T05:18:14;12.35;;;10.52;;
47299;SDS011;33036;51.320;17.234;2022-08-02T05:22:14;14.32;;;10.82;;
47299;SDS011;33036;51.320;17.234;2022-08-02T05:26:16;16.20;;;10.55;;
47299;SDS011;33036;51.320;17.234;2022-08-02T05:30:16;17.23;;;11.23;;
47299;SDS011;33036;51.320;17.234;2022-08-02T05:34:17;16.27;;;11.02;;
47299;SDS011;33036;51.320;17.234;2022-08-02T05:38:18;13.80;;;11.13;;
47299;SDS011;33036;51.320;17.234;2022-08-02T05:42:19;15.55;;;11.05;;
47299;SDS011;33036;51.320;17.234;2022-08-02T05:46:20;13.85;;;9.98;;
47299;SDS011;33036;51.320;17.234;2022-08-02T05:50:22;11.10;;;9.90;;
47299;SDS011;33036;51.320;17.234;2022-08-02T05:54:26;15.82;;;10.63;;
47299;SDS011;33036;51.320;17.234;2022-08-02T05:58:38;21.58;;;10.48;;
47299;SDS011;33036;51.320;17.234;2022-08-02T06:06:46;17.25;;;9.15;;
47299;SDS011;33036;51.320;17.234;2022-08-02T06:10:53;11.00;;;9.00;;
47299;SDS011;33036;51.320;17.234;2022-08-02T06:14:56;10.32;;;8.30;;
47299;SDS011;33036;51.320;17.234;2022-08-02T06:18:59;10.68;;;8.10;;
47299;SDS011;33036;51.320;17.234;2022-08-02T06:23:01;9.95;;;8.07;;
47299;SDS011;33036;51.320;17.234;2022-08-02T06:27:02;17.23;;;8.15;;
47299;SDS011;33036;51.320;17.234;2022-08-02T06:31:07;10.30;;;8.20;;
47299;SDS011;33036;51.320;17.234;2022-08-02T06:35:08;10.90;;;7.75;;
47299;SDS011;33036;51.320;17.234;2022-08-02T06:39:13;10.85;;;7.28;;
47299;SDS011;33036;51.320;17.234;2022-08-02T06:43:26;9.60;;;7.05;;
47299;SDS011;33036;51.320;17.234;2022-08-02T06:47:30;7.95;;;6.85;;
47299;SDS011;33036;51.320;17.234;2022-08-02T06:51:31;10.13;;;6.30;;
47299;SDS011;33036;51.320;17.234;2022-08-02T06:55:32;8.18;;;6.22;;
47299;SDS011;33036;51.320;17.234;2022-08-02T06:59:36;9.45;;;6.93;;
47299;SDS011;33036;51.320;17.234;2022-08-02T07:03:37;11.95;;;6.43;;
47299;SDS011;33036;51.320;17.234;2022-08-02T07:07:38;6.38;;;5.68;;
47299;SDS011;33036;51.320;17.234;2022-08-02T07:11:39;7.82;;;5.47;;
47299;SDS011;33036;51.320;17.234;2022-08-02T07:15:40;10.57;;;6.05;;
47299;SDS011;33036;51.320;17.234;2022-08-02T07:19:43;8.95;;;5.28;;
47299;SDS011;33036;51.320;17.234;2022-08-02T07:23:44;8.10;;;5.40;;
47299;SDS011;33036;51.320;17.234;2022-08-02T07:27:45;14.82;;;6.05;;
47299;SDS011;33036;51.320;17.234;2022-08-02T07:31:46;6.75;;;5.10;;
47299;SDS011;33036;51.320;17.234;2022-08-02T07:35:47;5.82;;;4.55;;
47299;SDS011;33036;51.320;17.234;2022-08-02T07:39:48;7.25;;;4.72;;
47299;SDS011;33036;51.320;17.234;2022-08-02T07:43:49;7.10;;;4.40;;
47299;SDS011;33036;51.320;17.234;2022-08-02T07:47:51;6.05;;;4.38;;
47299;SDS011;33036;51.320;17.234;2022-08-02T07:51:52;7.28;;;4.28;;
47299;SDS011;33036;51.320;17.234;2022-08-02T07:55:53;10.95;;;4.00;;
47299;SDS011;33036;51.320;17.234;2022-08-02T07:59:54;6.70;;;4.32;;
47299;SDS011;33036;51.320;17.234;2022-08-02T08:03:55;6.85;;;3.65;;
47299;SDS011;33036;51.320;17.234;2022-08-02T08:07:56;9.50;;;4.20;;
47299;SDS011;33036;51.320;17.234;2022-08-02T08:11:57;5.50;;;3.80;;
47299;SDS011;33036;51.320;17.234;2022-08-02T08:15:58;4.95;;;3.90;;
47299;SDS011;33036;51.320;17.234;2022-08-02T08:20:00;8.73;;;4.13;;
47299;SDS011;33036;51.320;17.234;2022-08-02T08:24:02;8.05;;;3.50;;
47299;SDS011;33036;51.320;17.234;2022-08-02T08:28:04;5.18;;;3.33;;
47299;SDS011;33036;51.320;17.234;2022-08-02T08:32:05;5.22;;;3.50;;
47299;SDS011;33036;51.320;17.234;2022-08-02T08:36:05;9.80;;;3.45;;
47299;SDS011;33036;51.320;17.234;2022-08-02T08:40:08;4.97;;;2.85;;
47299;SDS011;33036;51.320;17.234;2022-08-02T08:44:09;6.65;;;2.75;;
47299;SDS011;33036;51.320;17.234;2022-08-02T08:48:13;4.85;;;2.67;;
47299;SDS011;33036;51.320;17.234;2022-08-02T08:52:15;3.97;;;2.53;;
47299;SDS011;33036;51.320;17.234;2022-08-02T08:56:19;4.53;;;2.20;;
47299;SDS011;33036;51.320;17.234;2022-08-02T09:00:20;3.83;;;2.03;;
47299;SDS011;33036;51.320;17.234;2022-08-02T09:04:21;3.97;;;2.10;;
47299;SDS011;33036;51.320;17.234;2022-08-02T09:08:22;2.80;;;2.13;;
47299;SDS011;33036;51.320;17.234;2022-08-02T09:12:24;5.13;;;2.15;;
47299;SDS011;33036;51.320;17.234;2022-08-02T09:20:33;2.03;;;1.80;;
47299;SDS011;33036;51.320;17.234;2022-08-02T09:28:50;2.00;;;1.80;;
47299;SDS011;33036;51.320;17.234;2022-08-02T09:32:51;3.83;;;2.00;;
47299;SDS011;33036;51.320;17.234;2022-08-02T09:36:53;4.05;;;1.85;;
47299;SDS011;33036;51.320;17.234;2022-08-02T09:40:54;3.53;;;1.70;;
47299;SDS011;33036;51.320;17.234;2022-08-02T09:44:56;2.33;;;1.65;;
47299;SDS011;33036;51.320;17.234;2022-08-02T09:49:00;4.15;;;1.67;;
47299;SDS011;33036;51.320;17.234;2022-08-02T09:53:11;6.60;;;1.48;;
47299;SDS011;33036;51.320;17.234;2022-08-02T09:57:23;1.70;;;1.60;;
47299;SDS011;33036;51.320;17.234;2022-08-02T10:01:33;3.40;;;1.48;;
47299;SDS011;33036;51.320;17.234;2022-08-02T10:05:50;4.85;;;1.73;;
47299;SDS011;33036;51.320;17.234;2022-08-02T10:09:53;3.88;;;1.40;;
47299;SDS011;33036;51.320;17.234;2022-08-02T10:13:55;1.95;;;1.40;;
47299;SDS011;33036;51.320;17.234;2022-08-02T10:17:56;4.55;;;1.35;;
47299;SDS011;33036;51.320;17.234;2022-08-02T10:26:01;3.47;;;1.60;;
47299;SDS011;33036;51.320;17.234;2022-08-02T10:30:02;2.47;;;1.10;;
47299;SDS011;33036;51.320;17.234;2022-08-02T10:34:06;4.72;;;1.52;;
47299;SDS011;33036;51.320;17.234;2022-08-02T10:38:09;2.63;;;1.20;;
47299;SDS011;33036;51.320;17.234;2022-08-02T10:42:12;2.42;;;1.30;;
47299;SDS011;33036;51.320;17.234;2022-08-02T11:04:23;1.98;;;1.20;;
47299;SDS011;33036;51.320;17.234;2022-08-02T11:08:24;2.78;;;1.20;;
47299;SDS011;33036;51.320;17.234;2022-08-02T11:12:25;1.83;;;1.10;;
47299;SDS011;33036;51.320;17.234;2022-08-02T11:29:39;4.25;;;1.42;;
47299;SDS011;33036;51.320;17.234;2022-08-02T11:33:41;2.88;;;1.23;;
47299;SDS011;33036;51.320;17.234;2022-08-02T11:37:43;2.88;;;1.40;;
47299;SDS011;33036;51.320;17.234;2022-08-02T11:41:56;4.40;;;1.23;;
47299;SDS011;33036;51.320;17.234;2022-08-02T11:46:03;3.53;;;1.38;;
47299;SDS011;33036;51.320;17.234;2022-08-02T11:50:05;2.33;;;1.20;;
47299;SDS011;33036;51.320;17.234;2022-08-02T11:54:07;2.47;;;1.20;;
47299;SDS011;33036;51.320;17.234;2022-08-02T11:58:08;3.65;;;1.42;;
47299;SDS011;33036;51.320;17.234;2022-08-02T12:02:11;1.90;;;1.33;;
47299;SDS011;33036;51.320;17.234;2022-08-02T12:06:12;6.82;;;1.50;;
47299;SDS011;33036;51.320;17.234;2022-08-02T12:10:17;2.97;;;1.52;;
47299;SDS011;33036;51.320;17.234;2022-08-02T12:14:19;2.17;;;1.00;;
47299;SDS011;33036;51.320;17.234;2022-08-02T12:18:21;4.28;;;1.30;;
47299;SDS011;33036;51.320;17.234;2022-08-02T12:27:04;2.28;;;1.05;;
47299;SDS011;33036;51.320;17.234;2022-08-02T12:31:09;2.72;;;1.30;;
47299;SDS011;33036;51.320;17.234;2022-08-02T12:35:15;8.27;;;1.63;;
47299;SDS011;33036;51.320;17.234;2022-08-02T12:39:19;2.72;;;1.00;;
47299;SDS011;33036;51.320;17.234;2022-08-02T12:43:22;2.60;;;1.13;;
47299;SDS011;33036;51.320;17.234;2022-08-02T12:47:23;4.80;;;1.35;;
47299;SDS011;33036;51.320;17.234;2022-08-02T12:51:26;3.78;;;1.20;;
47299;SDS011;33036;51.320;17.234;2022-08-02T12:55:33;3.67;;;1.40;;
47299;SDS011;33036;51.320;17.234;2022-08-02T12:59:36;2.50;;;1.30;;
47299;SDS011;33036;51.320;17.234;2022-08-02T13:03:39;2.08;;;1.20;;
47299;SDS011;33036;51.320;17.234;2022-08-02T13:07:40;3.30;;;1.10;;
47299;SDS011;33036;51.320;17.234;2022-08-02T13:11:41;2.58;;;1.40;;
47299;SDS011;33036;51.320;17.234;2022-08-02T13:15:42;3.15;;;1.40;;
47299;SDS011;33036;51.320;17.234;2022-08-02T13:19:43;4.20;;;1.30;;
47299;SDS011;33036;51.320;17.234;2022-08-02T13:23:44;1.75;;;1.20;;
47299;SDS011;33036;51.320;17.234;2022-08-02T13:27:45;2.10;;;1.20;;
47299;SDS011;33036;51.320;17.234;2022-08-02T13:31:46;4.55;;;1.25;;
47299;SDS011;33036;51.320;17.234;2022-08-02T13:35:47;6.32;;;1.40;;
47299;SDS011;33036;51.320;17.234;2022-08-02T13:39:49;2.53;;;1.00;;
47299;SDS011;33036;51.320;17.234;2022-08-02T13:43:50;5.00;;;1.50;;
47299;SDS011;33036;51.320;17.234;2022-08-02T13:47:52;5.05;;;1.40;;
47299;SDS011;33036;51.320;17.234;2022-08-02T13:51:52;5.35;;;1.40;;
47299;SDS011;33036;51.320;17.234;2022-08-02T13:55:53;2.88;;;1.40;;
47299;SDS011;33036;51.320;17.234;2022-08-02T13:59:56;4.50;;;1.30;;
47299;SDS011;33036;51.320;17.234;2022-08-02T14:03:58;6.05;;;1.20;;
47299;SDS011;33036;51.320;17.234;2022-08-02T14:07:59;4.80;;;1.20;;
47299;SDS011;33036;51.320;17.234;2022-08-02T14:12:03;3.25;;;1.35;;
47299;SDS011;33036;51.320;17.234;2022-08-02T14:16:04;2.40;;;1.25;;
47299;SDS011;33036;51.320;17.234;2022-08-02T14:20:09;4.78;;;1.30;;
47299;SDS011;33036;51.320;17.234;2022-08-02T14:24:10;3.70;;;1.27;;
47299;SDS011;33036;51.320;17.234;2022-08-02T14:28:12;6.28;;;1.30;;
47299;SDS011;33036;51.320;17.234;2022-08-02T14:32:13;5.25;;;1.40;;
47299;SDS011;33036;51.320;17.234;2022-08-02T14:36:14;3.30;;;1.42;;
47299;SDS011;33036;51.320;17.234;2022-08-02T14:40:14;2.75;;;1.08;;
47299;SDS011;33036;51.320;17.234;2022-08-02T14:44:15;2.95;;;1.60;;
47299;SDS011;33036;51.320;17.234;2022-08-02T14:48:19;1.58;;;1.30;;
47299;SDS011;33036;51.320;17.234;2022-08-02T14:52:20;4.60;;;1.75;;
47299;SDS011;33036;51.320;17.234;2022-08-02T14:56:21;3.13;;;1.30;;
47299;SDS011;33036;51.320;17.234;2022-08-02T15:00:22;2.45;;;1.30;;
47299;SDS011;33036;51.320;17.234;2022-08-02T15:04:23;1.73;;;1.10;;
47299;SDS011;33036;51.320;17.234;2022-08-02T15:08:25;2.72;;;1.20;;
47299;SDS011;33036;51.320;17.234;2022-08-02T15:12:25;2.92;;;1.33;;
47299;SDS011;33036;51.320;17.234;2022-08-02T15:16:26;3.03;;;1.20;;
47299;SDS011;33036;51.320;17.234;2022-08-02T15:20:30;1.80;;;1.20;;
47299;SDS011;33036;51.320;17.234;2022-08-02T15:24:31;5.45;;;1.60;;
47299;SDS011;33036;51.320;17.234;2022-08-02T15:28:32;2.08;;;1.38;;
47299;SDS011;33036;51.320;17.234;2022-08-02T15:32:33;1.35;;;1.00;;
47299;SDS011;33036;51.320;17.234;2022-08-02T15:36:34;3.55;;;1.33;;
47299;SDS011;33036;51.320;17.234;2022-08-02T15:40:35;2.17;;;1.40;;
47299;SDS011;33036;51.320;17.234;2022-08-02T15:44:36;2.17;;;1.35;;
47299;SDS011;33036;51.320;17.234;2022-08-02T15:48:37;4.93;;;1.35;;
47299;SDS011;33036;51.320;17.234;2022-08-02T15:52:38;2.10;;;1.33;;
47299;SDS011;33036;51.320;17.234;2022-08-02T15:56:39;5.63;;;1.48;;
47299;SDS011;33036;51.320;17.234;2022-08-02T16:00:40;5.55;;;1.23;;
47299;SDS011;33036;51.320;17.234;2022-08-02T16:04:41;3.15;;;1.50;;
47299;SDS011;33036;51.320;17.234;2022-08-02T16:08:42;2.35;;;1.50;;
47299;SDS011;33036;51.320;17.234;2022-08-02T16:12:47;3.42;;;1.42;;
47299;SDS011;33036;51.320;17.234;2022-08-02T16:16:50;5.85;;;1.63;;
47299;SDS011;33036;51.320;17.234;2022-08-02T16:20:51;3.10;;;1.60;;
47299;SDS011;33036;51.320;17.234;2022-08-02T16:24:52;4.78;;;1.70;;
47299;SDS011;33036;51.320;17.234;2022-08-02T16:28:54;2.03;;;1.10;;
47299;SDS011;33036;51.320;17.234;2022-08-02T16:32:55;2.35;;;1.45;;
47299;SDS011;33036;51.320;17.234;2022-08-02T16:36:56;1.55;;;1.30;;
47299;SDS011;33036;51.320;17.234;2022-08-02T16:40:57;4.93;;;1.45;;
47299;SDS011;33036;51.320;17.234;2022-08-02T16:44:58;4.07;;;1.50;;
47299;SDS011;33036;51.320;17.234;2022-08-02T16:48:59;2.25;;;1.60;;
47299;SDS011;33036;51.320;17.234;2022-08-02T16:53:00;5.15;;;1.38;;
47299;SDS011;33036;51.320;17.234;2022-08-02T16:57:01;4.47;;;1.77;;
47299;SDS011;33036;51.320;17.234;2022-08-02T17:01:04;3.72;;;1.73;;
47299;SDS011;33036;51.320;17.234;2022-08-02T17:05:05;2.67;;;1.42;;
47299;SDS011;33036;51.320;17.234;2022-08-02T17:09:07;2.45;;;1.35;;
47299;SDS011;33036;51.320;17.234;2022-08-02T17:13:09;5.20;;;1.48;;
47299;SDS011;33036;51.320;17.234;2022-08-02T17:17:10;4.07;;;1.80;;
47299;SDS011;33036;51.320;17.234;2022-08-02T17:21:11;5.32;;;1.70;;
47299;SDS011;33036;51.320;17.234;2022-08-02T17:25:13;3.60;;;2.10;;
47299;SDS011;33036;51.320;17.234;2022-08-02T17:29:16;8.18;;;1.92;;
47299;SDS011;33036;51.320;17.234;2022-08-02T17:33:17;10.82;;;2.72;;
47299;SDS011;33036;51.320;17.234;2022-08-02T17:37:18;6.50;;;2.55;;
47299;SDS011;33036;51.320;17.234;2022-08-02T17:41:19;5.90;;;2.45;;
47299;SDS011;33036;51.320;17.234;2022-08-02T17:45:20;5.93;;;2.50;;
47299;SDS011;33036;51.320;17.234;2022-08-02T17:49:21;7.38;;;2.50;;
47299;SDS011;33036;51.320;17.234;2022-08-02T17:53:23;6.50;;;2.60;;
47299;SDS011;33036;51.320;17.234;2022-08-02T17:57:24;6.15;;;2.53;;
47299;SDS011;33036;51.320;17.234;2022-08-02T18:01:25;12.80;;;3.20;;
47299;SDS011;33036;51.320;17.234;2022-08-02T18:05:26;10.43;;;4.25;;
47299;SDS011;33036;51.320;17.234;2022-08-02T18:09:28;7.72;;;3.40;;
47299;SDS011;33036;51.320;17.234;2022-08-02T18:13:29;7.03;;;3.13;;
47299;SDS011;33036;51.320;17.234;2022-08-02T18:17:30;10.95;;;3.13;;
47299;SDS011;33036;51.320;17.234;2022-08-02T18:21:31;5.30;;;2.55;;
47299;SDS011;33036;51.320;17.234;2022-08-02T18:25:32;6.95;;;2.80;;
47299;SDS011;33036;51.320;17.234;2022-08-02T18:29:33;4.80;;;2.42;;
47299;SDS011;33036;51.320;17.234;2022-08-02T18:33:34;3.75;;;2.45;;
47299;SDS011;33036;51.320;17.234;2022-08-02T18:37:36;7.60;;;2.60;;
47299;SDS011;33036;51.320;17.234;2022-08-02T18:41:36;5.57;;;3.10;;
47299;SDS011;33036;51.320;17.234;2022-08-02T18:45:38;8.98;;;2.97;;
47299;SDS011;33036;51.320;17.234;2022-08-02T18:49:38;7.15;;;3.40;;
47299;SDS011;33036;51.320;17.234;2022-08-02T18:53:40;6.57;;;2.95;;
47299;SDS011;33036;51.320;17.234;2022-08-02T18:57:41;4.22;;;2.45;;
47299;SDS011;33036;51.320;17.234;2022-08-02T19:01:45;6.10;;;3.13;;
47299;SDS011;33036;51.320;17.234;2022-08-02T19:05:46;4.43;;;3.28;;
47299;SDS011;33036;51.320;17.234;2022-08-02T19:09:47;5.13;;;3.10;;
47299;SDS011;33036;51.320;17.234;2022-08-02T19:13:48;7.57;;;2.53;;
47299;SDS011;33036;51.320;17.234;2022-08-02T19:17:49;5.13;;;2.03;;
47299;SDS011;33036;51.320;17.234;2022-08-02T19:21:50;4.60;;;2.97;;
47299;SDS011;33036;51.320;17.234;2022-08-02T19:25:51;7.40;;;3.40;;
47299;SDS011;33036;51.320;17.234;2022-08-02T19:29:52;13.00;;;3.13;;
47299;SDS011;33036;51.320;17.234;2022-08-02T19:33:53;5.38;;;2.20;;
47299;SDS011;33036;51.320;17.234;2022-08-02T19:37:54;6.57;;;2.78;;
47299;SDS011;33036;51.320;17.234;2022-08-02T19:41:56;4.40;;;1.92;;
47299;SDS011;33036;51.320;17.234;2022-08-02T19:45:57;10.02;;;2.03;;
47299;SDS011;33036;51.320;17.234;2022-08-02T19:49:59;6.28;;;2.13;;
47299;SDS011;33036;51.320;17.234;2022-08-02T19:54:00;6.57;;;1.75;;
47299;SDS011;33036;51.320;17.234;2022-08-02T19:58:10;7.00;;;1.98;;
47299;SDS011;33036;51.320;17.234;2022-08-02T20:02:11;4.15;;;1.85;;
47299;SDS011;33036;51.320;17.234;2022-08-02T20:06:15;5.05;;;2.58;;
47299;SDS011;33036;51.320;17.234;2022-08-02T20:10:16;9.23;;;3.40;;
47299;SDS011;33036;51.320;17.234;2022-08-02T20:14:22;7.72;;;3.53;;
47299;SDS011;33036;51.320;17.234;2022-08-02T20:18:24;10.13;;;4.03;;
47299;SDS011;33036;51.320;17.234;2022-08-02T20:22:29;5.38;;;2.88;;
47299;SDS011;33036;51.320;17.234;2022-08-02T20:26:33;6.55;;;2.58;;
47299;SDS011;33036;51.320;17.234;2022-08-02T20:30:34;7.90;;;2.97;;
47299;SDS011;33036;51.320;17.234;2022-08-02T20:34:37;7.72;;;3.05;;
47299;SDS011;33036;51.320;17.234;2022-08-02T20:38:44;6.30;;;3.25;;
47299;SDS011;33036;51.320;17.234;2022-08-02T20:42:45;8.73;;;3.10;;
47299;SDS011;33036;51.320;17.234;2022-08-02T20:46:56;8.73;;;2.55;;
47299;SDS011;33036;51.320;17.234;2022-08-02T20:51:02;3.28;;;2.10;;
47299;SDS011;33036;51.320;17.234;2022-08-02T20:55:03;5.53;;;2.10;;
47299;SDS011;33036;51.320;17.234;2022-08-02T20:59:04;10.05;;;2.50;;
47299;SDS011;33036;51.320;17.234;2022-08-02T21:03:05;8.73;;;2.30;;
47299;SDS011;33036;51.320;17.234;2022-08-02T21:07:08;6.97;;;2.25;;
47299;SDS011;33036;51.320;17.234;2022-08-02T21:11:09;3.83;;;2.45;;
47299;SDS011;33036;51.320;17.234;2022-08-02T21:15:10;6.15;;;2.72;;
47299;SDS011;33036;51.320;17.234;2022-08-02T21:19:11;4.43;;;2.70;;
47299;SDS011;33036;51.320;17.234;2022-08-02T21:23:12;6.00;;;2.80;;
47299;SDS011;33036;51.320;17.234;2022-08-02T21:27:14;6.18;;;2.75;;
47299;SDS011;33036;51.320;17.234;2022-08-02T21:31:15;3.35;;;2.38;;
47299;SDS011;33036;51.320;17.234;2022-08-02T21:35:16;5.28;;;2.60;;
47299;SDS011;33036;51.320;17.234;2022-08-02T21:39:17;4.40;;;2.60;;
47299;SDS011;33036;51.320;17.234;2022-08-02T21:43:19;7.65;;;2.70;;
47299;SDS011;33036;51.320;17.234;2022-08-02T21:47:20;6.03;;;2.70;;
47299;SDS011;33036;51.320;17.234;2022-08-02T21:51:24;7.18;;;2.65;;
47299;SDS011;33036;51.320;17.234;2022-08-02T21:55:25;8.02;;;2.88;;
47299;SDS011;33036;51.320;17.234;2022-08-02T21:59:26;4.15;;;3.08;;
47299;SDS011;33036;51.320;17.234;2022-08-02T22:03:27;8.95;;;2.78;;
47299;SDS011;33036;51.320;17.234;2022-08-02T22:07:28;7.70;;;3.00;;
47299;SDS011;33036;51.320;17.234;2022-08-02T22:11:29;8.70;;;3.38;;
47299;SDS011;33036;51.320;17.234;2022-08-02T22:15:32;4.43;;;3.05;;
47299;SDS011;33036;51.320;17.234;2022-08-02T22:19:33;6.70;;;3.05;;
47299;SDS011;33036;51.320;17.234;2022-08-02T22:23:34;5.88;;;3.03;;
47299;SDS011;33036;51.320;17.234;2022-08-02T22:27:35;5.72;;;3.20;;
47299;SDS011;33036;51.320;17.234;2022-08-02T22:31:36;10.00;;;3.63;;
47299;SDS011;33036;51.320;17.234;2022-08-02T22:35:37;4.15;;;3.10;;
47299;SDS011;33036;51.320;17.234;2022-08-02T22:39:38;5.75;;;3.60;;
47299;SDS011;33036;51.320;17.234;2022-08-02T22:43:40;4.25;;;2.95;;
47299;SDS011;33036;51.320;17.234;2022-08-02T22:47:41;4.00;;;3.15;;
47299;SDS011;33036;51.320;17.234;2022-08-02T22:51:42;5.93;;;3.55;;
47299;SDS011;33036;51.320;17.234;2022-08-02T22:55:43;4.75;;;3.63;;
47299;SDS011;33036;51.320;17.234;2022-08-02T22:59:44;6.82;;;4.00;;
47299;SDS011;33036;51.320;17.234;2022-08-02T23:03:45;7.43;;;3.92;;
47299;SDS011;33036;51.320;17.234;2022-08-02T23:07:46;6.72;;;3.42;;
47299;SDS011;33036;51.320;17.234;2022-08-02T23:11:47;9.23;;;3.50;;
47299;SDS011;33036;51.320;17.234;2022-08-02T23:15:47;6.47;;;3.88;;
47299;SDS011;33036;51.320;17.234;2022-08-02T23:20:07;6.43;;;3.40;;
47299;SDS011;33036;51.320;17.234;2022-08-02T23:24:14;9.35;;;4.05;;
47299;SDS011;33036;51.320;17.234;2022-08-02T23:28:15;5.10;;;3.63;;
47299;SDS011;33036;51.320;17.234;2022-08-02T23:32:19;5.25;;;3.60;;
47299;SDS011;33036;51.320;17.234;2022-08-02T23:36:20;9.27;;;4.88;;
47299;SDS011;33036;51.320;17.234;2022-08-02T23:40:21;11.27;;;4.60;;
47299;SDS011;33036;51.320;17.234;2022-08-02T23:44:22;8.40;;;4.10;;
47299;SDS011;33036;51.320;17.234;2022-08-02T23:48:23;8.82;;;4.25;;
47299;SDS011;33036;51.320;17.234;2022-08-02T23:52:25;6.43;;;4.20;;
47299;SDS011;33036;51.320;17.234;2022-08-02T23:56:25;6.30;;;4.28;;
